Time;durP1;ratioP1;P1;durP2;ratioP2;P2;SDS_P1;SDS_P2;PMS_P1;PMS_P2;Temp;Humidity;BMP_temperature;BMP_pressure;BME280_temperature;BME280_humidity;BME280_pressure;Samples;Min_cycle;Max_cycle;Signal;HPM_P1;HPM_P2
2023/01/24 00:02:15;;;;;;;28.10;18.83;;;;;;;2.10;100.00;96791.84;5014167;28;20206;-88
2023/01/24 00:04:48;;;;;;;31.93;18.83;;;;;;;2.17;100.00;96801.53;5015304;28;20250;-87
2023/01/24 00:07:29;;;;;;;34.37;18.67;;;;;;;2.23;100.00;96796.06;5015717;28;20266;-87
2023/01/24 00:09:58;;;;;;;28.47;17.93;;;;;;;2.23;100.00;96801.16;5009909;28;20207;-87
2023/01/24 00:12:37;;;;;;;30.83;17.73;;;;;;;2.31;100.00;96806.56;4995042;28;20219;-88
2023/01/24 00:15:18;;;;;;;28.40;18.20;;;;;;;2.30;100.00;96807.50;5001018;28;20307;-87
2023/01/24 00:18:39;;;;;;;;;;;;;;;;;;;;;
2023/01/24 00:24:07;;;;;;;31.40;18.73;;;;;;;2.34;100.00;96811.44;4996470;28;20211;-88
2023/01/24 00:26:37;;;;;;;33.83;19.13;;;;;;;2.34;100.00;96820.81;5014584;28;20241;-88
2023/01/24 00:29:06;;;;;;;31.83;18.87;;;;;;;2.39;100.00;96819.59;5013833;28;20687;-88
2023/01/24 00:31:37;;;;;;;34.47;19.50;;;;;;;2.31;100.00;96823.56;4997477;28;20204;-88
2023/01/24 00:34:11;;;;;;;31.27;18.53;;;;;;;2.30;100.00;96815.13;4993485;28;20199;-87
2023/01/24 00:36:49;;;;;;;34.13;19.23;;;;;;;2.33;100.00;96814.91;5010034;28;20233;-87
2023/01/24 00:39:24;;;;;;;31.07;18.73;;;;;;;2.35;100.00;96814.81;5013986;28;20206;-88
2023/01/24 00:42:11;;;;;;;30.53;18.77;;;;;;;2.37;100.00;96813.00;5012934;28;20194;-88
2023/01/24 00:44:41;;;;;;;36.57;19.30;;;;;;;2.25;100.00;96814.56;5012238;28;20230;-88
2023/01/24 00:47:12;;;;;;;34.13;19.23;;;;;;;2.16;100.00;96822.75;5013098;28;20260;-89
2023/01/24 00:49:41;;;;;;;35.40;19.77;;;;;;;2.28;100.00;96826.28;5011565;28;20569;-87
2023/01/24 00:52:07;;;;;;;36.40;19.47;;;;;;;2.32;100.00;96832.78;4993753;28;20337;-87
2023/01/24 00:54:35;;;;;;;36.97;19.43;;;;;;;2.32;100.00;96831.06;5006559;28;20199;-88
2023/01/24 00:57:02;;;;;;;34.23;18.73;;;;;;;2.31;100.00;96831.97;5014058;28;20601;-87
2023/01/24 00:59:28;;;;;;;35.67;19.37;;;;;;;2.37;100.00;96825.69;5001148;28;20204;-88
2023/01/24 01:01:56;;;;;;;36.03;20.40;;;;;;;2.40;100.00;96840.75;4993129;28;20211;-87
2023/01/24 01:04:22;;;;;;;33.10;18.87;;;;;;;2.36;100.00;96835.03;4994448;28;20208;-88
2023/01/24 01:07:04;;;;;;;39.13;20.60;;;;;;;2.29;100.00;96838.06;4994857;28;20286;-87
2023/01/24 01:12:23;;;;;;;31.33;20.00;;;;;;;2.44;100.00;96842.22;4990256;28;20211;-88
2023/01/24 01:14:56;;;;;;;37.47;21.17;;;;;;;2.48;100.00;96837.75;5006526;28;20230;-88
2023/01/24 01:17:41;;;;;;;38.40;21.10;;;;;;;2.43;100.00;96836.31;5010750;28;20222;-88
2023/01/24 01:20:37;;;;;;;34.90;22.07;;;;;;;2.41;100.00;96839.84;4997280;28;20203;-87
2023/01/24 01:23:52;;;;;;;40.50;22.00;;;;;;;2.46;100.00;96834.50;5004512;28;20212;-88
2023/01/24 01:26:38;;;;;;;37.90;20.57;;;;;;;2.46;100.00;96829.41;5012346;28;20241;-87
2023/01/24 01:29:57;;;;;;;34.70;20.73;;;;;;;2.51;100.00;96832.44;5003600;28;20200;-88
2023/01/24 01:45:00;;;;;;;35.80;20.20;;;;;;;2.48;100.00;96837.75;5000626;28;20708;-88
2023/01/24 01:47:41;;;;;;;33.30;19.30;;;;;;;2.53;100.00;96833.16;5009661;28;20667;-88
2023/01/24 01:50:32;;;;;;;33.90;19.43;;;;;;;2.51;100.00;96829.91;5011099;28;20250;-87
2023/01/24 01:53:15;;;;;;;34.70;19.60;;;;;;;2.51;100.00;96830.72;4996213;28;20208;-87
2023/01/24 01:59:05;;;;;;;32.63;19.10;;;;;;;2.51;100.00;96840.06;5010232;28;20224;-88
2023/01/24 02:01:33;;;;;;;32.07;17.53;;;;;;;2.41;100.00;96844.94;4995775;28;20299;-88
2023/01/24 02:07:18;;;;;;;30.30;17.97;;;;;;;2.48;100.00;96842.84;5071507;22;20309;-89
2023/01/24 02:10:00;;;;;;;31.10;18.00;;;;;;;2.48;100.00;96848.72;5015540;28;20187;-89
2023/01/24 02:18:26;;;;;;;30.67;18.73;;;;;;;2.52;100.00;96839.16;5014097;28;20233;-87
2023/01/24 02:20:55;;;;;;;30.70;18.03;;;;;;;2.46;100.00;96847.19;5016599;28;20194;-87
2023/01/24 02:23:36;;;;;;;31.97;18.27;;;;;;;2.52;100.00;96839.97;5015191;28;20218;-87
2023/01/24 02:26:08;;;;;;;28.17;18.27;;;;;;;2.60;100.00;96842.06;5002162;28;20242;-88
2023/01/24 02:29:03;;;;;;;29.20;17.50;;;;;;;2.54;100.00;96839.88;5001571;28;20198;-89
2023/01/24 02:32:04;;;;;;;33.10;18.27;;;;;;;2.44;100.00;96839.66;5018082;28;20208;-87
2023/01/24 02:34:38;;;;;;;31.00;17.30;;;;;;;2.49;100.00;96837.66;4999655;28;20202;-88
2023/01/24 02:37:19;;;;;;;32.03;17.77;;;;;;;2.38;100.00;96835.78;4996213;28;20238;-88
2023/01/24 02:40:01;;;;;;;31.43;18.37;;;;;;;2.32;100.00;96845.50;4997355;28;20207;-88
2023/01/24 02:42:56;;;;;;;34.63;20.10;;;;;;;2.37;100.00;96841.75;5012953;28;20198;-87
2023/01/24 02:45:39;;;;;;;32.30;18.93;;;;;;;2.39;100.00;96842.47;4997327;28;20306;-87
2023/01/24 02:48:12;;;;;;;32.17;19.10;;;;;;;2.40;100.00;96841.56;4997481;28;20199;-88
2023/01/24 02:53:42;;;;;;;35.77;20.20;;;;;;;2.45;100.00;96830.31;5002820;28;20234;-87
2023/01/24 02:59:12;;;;;;;30.77;18.97;;;;;;;2.37;100.00;96818.88;5010439;28;20237;-87
2023/01/24 03:04:37;;;;;;;;;;;;;;;;;;;;;
2023/01/24 03:07:22;;;;;;;34.47;20.07;;;;;;;2.36;100.00;96829.97;5003140;28;20798;-87
2023/01/24 03:09:57;;;;;;;35.80;20.23;;;;;;;2.40;100.00;96826.31;5015939;28;20199;-89
2023/01/24 03:34:58;;;;;;;35.67;19.67;;;;;;;2.25;100.00;96850.16;5012370;28;20958;-89
2023/01/24 03:40:08;;;;;;;36.00;19.20;;;;;;;2.26;100.00;96853.50;4984879;28;20234;-88
2023/01/24 03:42:38;;;;;;;37.53;19.30;;;;;;;2.31;100.00;96854.84;4999743;28;20286;-89
2023/01/24 03:45:16;;;;;;;35.77;19.83;;;;;;;2.30;100.00;96858.31;5003109;28;20218;-90
2023/01/24 03:47:45;;;;;;;37.97;19.87;;;;;;;2.44;100.00;96867.63;5017328;28;20205;-88
2023/01/24 03:52:56;;;;;;;36.27;20.33;;;;;;;2.42;100.00;96867.72;5001621;28;20229;-87
2023/01/24 03:55:24;;;;;;;37.00;19.90;;;;;;;2.45;100.00;96871.78;5015878;28;20712;-88
2023/01/24 03:57:50;;;;;;;35.67;20.57;;;;;;;2.43;100.00;96876.97;5012364;28;20261;-87
2023/01/24 04:00:21;;;;;;;36.43;20.37;;;;;;;2.51;100.00;96878.22;4996387;28;20214;-87
2023/01/24 04:02:49;;;;;;;35.43;20.23;;;;;;;2.52;100.00;96882.38;4998473;28;20215;-87
2023/01/24 04:05:15;;;;;;;36.40;20.30;;;;;;;2.53;100.00;96881.47;5014723;28;20223;-87
2023/01/24 04:07:42;;;;;;;36.03;20.00;;;;;;;2.54;100.00;96876.28;4971475;28;1231583;-87
2023/01/24 04:10:18;;;;;;;35.37;19.83;;;;;;;2.54;100.00;96876.28;5009241;28;20202;-89
2023/01/24 04:12:53;;;;;;;36.00;20.90;;;;;;;2.44;100.00;96870.16;5014843;28;20242;-89
2023/01/24 04:15:29;;;;;;;39.83;20.70;;;;;;;2.43;100.00;96873.63;5014359;28;20222;-87
2023/01/24 04:18:06;;;;;;;36.93;20.47;;;;;;;2.37;100.00;96867.19;5010043;28;20305;-87
2023/01/24 04:20:35;;;;;;;39.17;20.57;;;;;;;2.44;100.00;96862.53;5002444;28;20234;-87
2023/01/24 04:23:06;;;;;;;35.07;20.07;;;;;;;2.51;100.00;96865.50;5000432;28;20222;-88
2023/01/24 04:25:59;;;;;;;36.17;20.57;;;;;;;2.52;100.00;96862.88;5016784;28;20252;-89
2023/01/24 04:28:26;;;;;;;37.03;19.83;;;;;;;2.56;100.00;96861.75;5000336;28;20206;-88
2023/01/24 04:31:00;;;;;;;38.07;20.17;;;;;;;2.60;100.00;96864.94;4996321;28;20203;-88
2023/01/24 04:36:15;;;;;;;37.47;20.40;;;;;;;2.48;100.00;96868.25;5013458;28;20230;-88
2023/01/24 04:38:56;;;;;;;40.73;20.13;;;;;;;2.51;100.00;96860.41;4997534;28;20307;-88
2023/01/24 04:41:30;;;;;;;31.73;19.30;;;;;;;2.52;100.00;96856.97;4995736;28;20203;-88
2023/01/24 04:44:11;;;;;;;39.27;20.30;;;;;;;2.54;100.00;96860.22;5002142;28;20271;-89
2023/01/24 04:47:02;;;;;;;33.63;19.43;;;;;;;2.54;100.00;96863.59;4995390;28;20253;-89
2023/01/24 04:49:49;;;;;;;36.60;19.70;;;;;;;2.59;100.00;96855.69;4995298;28;20207;-88
2023/01/24 04:52:25;;;;;;;36.17;20.13;;;;;;;2.66;100.00;96857.75;4994949;28;20195;-88
2023/01/24 04:55:10;;;;;;;;;;;;;;;;;;;;;
2023/01/24 04:58:00;;;;;;;35.70;19.23;;;;;;;2.56;100.00;96866.84;4998403;28;20226;-87
2023/01/24 05:00:30;;;;;;;38.13;19.93;;;;;;;2.52;100.00;96862.03;4995240;28;20269;-89
2023/01/24 05:03:04;;;;;;;29.90;18.33;;;;;;;2.50;100.00;96858.81;5013686;28;20221;-87
2023/01/24 05:05:32;;;;;;;34.27;19.33;;;;;;;2.52;100.00;96860.31;5015744;28;20689;-87
2023/01/24 05:13:34;;;;;;;30.57;17.00;;;;;;;2.41;100.00;96868.63;5001109;28;20203;-88
2023/01/24 05:19:00;;;;;;;34.57;18.10;;;;;;;2.45;100.00;96871.78;5015909;28;20228;-88
2023/01/24 05:21:30;;;;;;;34.97;18.13;;;;;;;2.31;100.00;96869.31;5011581;28;20188;-88
2023/01/24 05:24:14;;;;;;;33.50;17.87;;;;;;;2.23;100.00;96877.38;4999132;28;20203;-90
2023/01/24 05:26:43;;;;;;;39.77;17.93;;;;;;;2.14;100.00;96869.47;5016456;28;20707;-88
2023/01/24 05:29:22;;;;;;;38.40;18.07;;;;;;;1.98;100.00;96878.03;5019149;28;20241;-88
2023/01/24 05:32:03;;;;;;;39.57;17.80;;;;;;;2.14;100.00;96884.72;5000229;28;20290;-87
2023/01/24 05:34:44;;;;;;;39.47;17.23;;;;;;;2.19;100.00;96887.81;5007052;28;20216;-87
2023/01/24 05:37:19;;;;;;;36.93;18.60;;;;;;;2.16;100.00;96876.09;5018493;28;20261;-88
2023/01/24 05:39:45;;;;;;;42.57;18.87;;;;;;;2.10;100.00;96886.66;5019355;28;20232;-88
2023/01/24 05:42:40;;;;;;;40.87;18.53;;;;;;;2.12;100.00;96881.50;5020076;28;20202;-87
2023/01/24 05:51:28;;;;;;;47.90;19.40;;;;;;;2.20;100.00;96894.53;4964162;28;20215;-87
2023/01/24 05:53:57;;;;;;;43.47;18.37;;;;;;;2.28;100.00;96892.34;5004467;28;20214;-88
2023/01/24 05:59:31;;;;;;;47.40;19.07;;;;;;;2.04;100.00;96899.72;5013469;28;20291;-87
2023/01/24 06:02:09;;;;;;;50.63;19.70;;;;;;;1.99;100.00;96901.72;5006867;28;20699;-88
2023/01/24 06:04:52;;;;;;;41.87;19.77;;;;;;;2.17;100.00;96899.78;5018612;28;20191;-88
2023/01/24 06:07:46;;;;;;;;;;;;;;;;;;;;;
2023/01/24 06:16:19;;;;;;;54.83;21.20;;;;;;;2.28;100.00;96900.78;5007628;28;20282;-89
2023/01/24 06:19:22;;;;;;;39.63;19.83;;;;;;;2.41;100.00;96909.28;5017000;28;20234;-88
2023/01/24 06:22:25;;;;;;;49.03;21.00;;;;;;;2.39;100.00;96915.38;4977071;28;20264;-86
2023/01/24 06:25:32;;;;;;;;;;;;;;;;;;;;;
2023/01/24 06:28:34;;;;;;;55.50;24.03;;;;;;;2.55;100.00;96922.88;4976968;28;20739;-88
2023/01/24 06:34:29;;;;;;;37.80;19.77;;;;;;;2.65;100.00;96929.84;4938858;28;20207;-88
2023/01/24 06:37:14;;;;;;;47.10;20.73;;;;;;;2.66;100.00;96931.50;4974211;28;20204;-88
2023/01/24 06:39:52;;;;;;;44.77;19.67;;;;;;;2.73;100.00;96930.19;4974763;28;20224;-89
2023/01/24 06:42:31;;;;;;;46.33;20.43;;;;;;;2.80;100.00;96932.34;5009164;28;20202;-88
2023/01/24 06:45:31;;;;;;;;;;;;;;;;;;;;;
2023/01/24 06:48:27;;;;;;;42.47;21.30;;;;;;;2.89;100.00;96941.94;5010814;28;20728;-88
2023/01/24 06:51:17;;;;;;;47.00;20.63;;;;;;;2.92;100.00;96942.56;4955425;29;20212;-87
2023/01/24 06:54:04;;;;;;;44.87;20.17;;;;;;;2.86;100.00;96942.16;4970688;28;20202;-87
2023/01/24 06:56:38;;;;;;;41.53;21.33;;;;;;;2.77;100.00;96946.88;5015526;28;20385;-87
2023/01/24 06:59:07;;;;;;;41.43;22.10;;;;;;;2.75;100.00;96946.16;5011830;28;20253;-88
2023/01/24 07:01:46;;;;;;;41.10;21.40;;;;;;;2.72;100.00;96946.34;5012222;28;20199;-88
2023/01/24 07:04:14;;;;;;;40.80;20.57;;;;;;;2.72;100.00;96951.44;4995662;28;20743;-88
2023/01/24 07:07:10;;;;;;;39.80;21.23;;;;;;;2.75;100.00;96950.44;4994155;28;20238;-88
2023/01/24 07:09:56;;;;;;;;;;;;;;;;;;;;;
2023/01/24 07:12:22;;;;;;;43.00;21.57;;;;;;;2.78;100.00;96957.88;5005136;28;20282;-88
2023/01/24 07:14:52;;;;;;;36.73;20.63;;;;;;;2.76;100.00;96955.41;5015846;28;20249;-88
2023/01/24 07:17:45;;;;;;;38.37;21.37;;;;;;;2.81;100.00;96959.41;5015722;28;20199;-88
2023/01/24 07:20:14;;;;;;;42.37;21.20;;;;;;;2.85;100.00;96953.22;5009735;28;20309;-88
2023/01/24 07:32:18;;;;;;;41.10;21.37;;;;;;;2.90;100.00;96969.00;5012879;28;20226;-87
2023/01/24 07:34:46;;;;;;;39.90;21.23;;;;;;;2.75;100.00;96963.97;5015873;28;20696;-90
2023/01/24 07:37:22;;;;;;;;;;;;;;;;;;;;;
2023/01/24 07:39:51;;;;;;;39.23;21.27;;;;;;;2.78;100.00;96968.03;5018869;28;20416;-88
2023/01/24 07:42:18;;;;;;;39.40;20.77;;;;;;;2.80;100.00;96961.16;5016542;28;20207;-89
2023/01/24 07:44:53;;;;;;;38.27;20.87;;;;;;;2.77;100.00;96971.50;5015954;28;20203;-86
2023/01/24 07:47:30;;;;;;;37.50;20.17;;;;;;;2.82;100.00;96966.94;5014467;28;20210;-88
2023/01/24 07:52:40;;;;;;;38.50;20.23;;;;;;;2.92;100.00;96975.63;5013637;28;20202;-88
2023/01/24 07:55:13;;;;;;;39.17;21.70;;;;;;;2.91;100.00;96981.63;5015241;28;20285;-88
2023/01/24 07:57:40;;;;;;;45.10;20.07;;;;;;;2.90;100.00;96989.34;5015577;28;20203;-90
2023/01/24 08:00:08;;;;;;;38.93;20.47;;;;;;;2.89;100.00;96983.44;5015296;28;20229;-88
2023/01/24 08:05:48;;;;;;;40.07;19.67;;;;;;;2.91;100.00;96996.06;5013460;28;20592;-88
2023/01/24 08:08:46;;;;;;;36.37;18.87;;;;;;;2.91;100.00;96996.06;5018119;28;20198;-87
2023/01/24 08:17:05;;;;;;;40.60;20.97;;;;;;;2.67;100.00;96998.41;5010896;28;20227;-87
2023/01/24 08:25:29;;;;;;;34.07;18.20;;;;;;;2.71;100.00;97004.91;5009797;28;20604;-87
2023/01/24 08:28:01;;;;;;;34.77;18.40;;;;;;;2.65;100.00;96998.50;5011095;28;20257;-87
2023/01/24 08:30:38;;;;;;;36.17;18.17;;;;;;;2.52;100.00;97010.31;5010822;28;20284;-87
2023/01/24 08:33:11;;;;;;;36.67;18.70;;;;;;;2.50;100.00;97007.06;5009662;28;20230;-87
2023/01/24 08:35:50;;;;;;;35.93;17.80;;;;;;;2.51;100.00;97011.22;5010426;28;20219;-89
2023/01/24 08:38:43;;;;;;;40.13;18.87;;;;;;;2.65;100.00;97008.69;5011558;28;20304;-88
2023/01/24 08:41:26;;;;;;;36.87;18.10;;;;;;;2.69;100.00;97011.84;5012313;28;20687;-87
2023/01/24 08:44:02;;;;;;;40.23;18.17;;;;;;;2.67;100.00;97013.66;5012292;28;20266;-87
2023/01/24 08:46:52;;;;;;;34.23;17.97;;;;;;;2.71;100.00;97015.09;5011055;28;20226;-88
2023/01/24 08:49:35;;;;;;;37.23;18.20;;;;;;;2.82;100.00;97025.44;5012559;28;20262;-87
2023/01/24 08:52:04;;;;;;;33.90;18.43;;;;;;;2.86;100.00;97023.53;5011707;28;20281;-87
2023/01/24 08:54:39;;;;;;;36.53;17.30;;;;;;;2.77;100.00;97024.91;5011763;28;20649;-88
2023/01/24 08:57:22;;;;;;;37.23;17.60;;;;;;;2.82;100.00;97024.63;5012364;28;20229;-88
2023/01/24 08:59:59;;;;;;;;;;;;;;;;;;;;;
2023/01/24 09:03:00;;;;;;;34.60;17.43;;;;;;;2.66;100.00;97025.56;5012055;28;20274;-88
2023/01/24 09:05:38;;;;;;;40.63;19.07;;;;;;;2.45;100.00;97026.84;5012036;28;20615;-87
2023/01/24 09:08:14;;;;;;;36.27;18.47;;;;;;;2.40;100.00;97028.84;5013334;28;20225;-87
2023/01/24 09:11:12;;;;;;;34.97;17.30;;;;;;;2.46;100.00;97027.66;5013602;28;20281;-89
2023/01/24 09:14:18;;;;;;;34.20;17.17;;;;;;;2.63;100.00;97022.38;5012311;28;20222;-87
2023/01/24 09:17:18;;;;;;;30.33;16.60;;;;;;;2.69;100.00;97029.66;5006434;28;20273;-89
2023/01/24 09:20:26;;;;;;;32.93;17.10;;;;;;;2.70;100.00;97039.72;5000157;28;20222;-87
2023/01/24 09:23:21;;;;;;;34.00;18.37;;;;;;;2.64;100.00;97039.28;5015097;28;20211;-89
2023/01/24 09:26:03;;;;;;;35.70;17.40;;;;;;;2.72;100.00;97037.06;5013820;28;20222;-87
2023/01/24 09:31:41;;;;;;;31.83;16.63;;;;;;;2.78;100.00;97047.69;5011747;28;20580;-87
2023/01/24 09:35:20;;;;;;;33.37;18.67;;;;;;;2.75;100.00;97047.88;5013721;28;20245;-90
2023/01/24 09:38:48;;;;;;;;;;;;;;;;;;;;;
2023/01/24 09:41:48;;;;;;;30.80;17.20;;;;;;;2.89;100.00;97047.03;5006982;28;20293;-88
2023/01/24 09:45:06;;;;;;;29.33;17.63;;;;;;;2.87;100.00;97053.16;5010913;28;20211;-88
2023/01/24 09:48:22;;;;;;;;;;;;;;;;;;;;;
2023/01/24 09:51:33;;;;;;;35.83;17.93;;;;;;;2.76;100.00;97046.16;5007364;28;20266;-88
2023/01/24 09:57:49;;;;;;;31.80;16.97;;;;;;;2.75;100.00;97050.44;4996950;28;20206;-89
2023/01/24 10:00:55;;;;;;;34.27;18.53;;;;;;;2.74;100.00;97047.97;4996965;28;20223;-89
2023/01/24 10:03:33;;;;;;;34.27;17.63;;;;;;;2.71;100.00;97048.16;5001855;28;20257;-88
2023/01/24 10:19:04;;;;;;;29.67;17.47;;;;;;;2.58;100.00;97050.63;4972480;28;20224;-90
2023/01/24 10:25:25;;;;;;;32.90;17.40;;;;;;;2.57;100.00;97055.78;4971509;28;20366;-89
2023/01/24 10:28:42;;;;;;;;;;;;;;;;;;;;;
2023/01/24 10:35:08;;;;;;;31.90;17.33;;;;;;;2.71;100.00;97046.44;4840958;29;20263;-88
2023/01/24 10:44:31;;;;;;;26.10;16.77;;;;;;;2.90;100.00;97053.75;4873174;29;20342;-88
2023/01/24 10:47:59;;;;;;;;;;;;;;;;;;;;;
2023/01/24 10:54:28;;;;;;;26.60;16.13;;;;;;;2.80;100.00;97041.72;4974047;28;20543;-88
2023/01/24 11:01:00;;;;;;;25.43;16.67;;;;;;;2.93;100.00;97037.50;4954216;28;20283;-86
2023/01/24 11:10:21;;;;;;;29.03;16.57;;;;;;;2.95;100.00;97030.59;4854850;29;20335;-88
2023/01/24 11:44:08;;;;;;;27.60;16.13;;;;;;;2.75;100.00;97014.00;4981507;28;20671;-89
2023/01/24 12:27:24;;;;;;;23.83;14.50;;;;;;;2.76;100.00;96987.66;5961276;23;20550;-86
2023/01/24 12:33:40;;;;;;;20.40;13.83;;;;;;;2.71;100.00;96984.56;5980172;23;20182;-89
2023/01/24 12:44:03;;;;;;;21.13;14.40;;;;;;;2.85;100.00;96981.22;5848456;24;20185;-87
2023/01/24 13:04:09;;;;;;;21.47;14.07;;;;;;;3.00;100.00;96968.34;6179537;23;20234;-86
2023/01/24 13:07:23;;;;;;;20.77;13.53;;;;;;;2.90;100.00;96964.72;6181842;23;20225;-87
2023/01/24 13:37:19;;;;;;;22.33;14.40;;;;;;;2.85;100.00;96961.69;5944775;24;20203;-88
2023/01/24 13:40:41;;;;;;;24.53;16.17;;;;;;;2.86;100.00;96967.59;5968700;23;20653;-89
2023/01/24 14:14:16;;;;;;;23.57;15.83;;;;;;;3.26;100.00;96971.81;6208323;23;20185;-89
2023/01/24 14:17:51;;;;;;;;;;;;;;;;;;;;;
2023/01/24 14:28:06;;;;;;;22.17;15.80;;;;;;;3.16;100.00;96995.38;6095439;23;20258;-89
2023/01/24 14:34:16;;;;;;;24.77;15.97;;;;;;;3.04;100.00;96991.88;6214596;23;20208;-88
2023/01/24 14:37:34;;;;;;;28.07;17.10;;;;;;;3.14;100.00;97003.09;6213496;23;20194;-88
2023/01/24 14:43:54;;;;;;;27.27;16.07;;;;;;;3.24;100.00;97004.19;6206270;23;20196;-89
2023/01/24 14:53:02;;;;;;;25.63;17.00;;;;;;;3.15;100.00;97021.72;6214714;23;20177;-90
2023/01/24 14:55:52;;;;;;;22.43;15.57;;;;;;;3.19;100.00;97025.72;6208873;22;20205;-88
2023/01/24 14:58:42;;;;;;;27.40;17.37;;;;;;;3.24;100.00;97027.09;6217515;23;20188;-88
2023/01/24 15:01:56;;;;;;;28.33;18.03;;;;;;;3.18;100.00;97024.09;6193328;23;20181;-89
2023/01/24 15:05:04;;;;;;;28.70;16.73;;;;;;;3.10;100.00;97035.56;6216969;23;20208;-87
2023/01/24 15:07:55;;;;;;;26.13;15.67;;;;;;;3.17;100.00;97033.44;6183844;23;20229;-88
2023/01/24 15:10:46;;;;;;;28.43;17.40;;;;;;;3.09;100.00;97031.38;6186755;23;20672;-89
2023/01/24 15:17:19;;;;;;;;;;;;;;;;;;;;;
2023/01/24 15:20:33;;;;;;;25.73;16.47;;;;;;;2.95;100.00;97044.13;6087661;23;20625;-89
2023/01/24 15:23:31;;;;;;;24.30;16.30;;;;;;;3.09;100.00;97036.47;6185257;23;20201;-88
2023/01/24 15:27:00;;;;;;;;;;;;;;;;;;;;;
2023/01/24 15:30:23;;;;;;;26.47;16.77;;;;;;;3.29;100.00;97037.78;6185411;23;20177;-88
2023/01/24 15:33:09;;;;;;;26.73;16.77;;;;;;;3.35;100.00;97039.94;6183240;23;20261;-89
2023/01/24 15:36:29;;;;;;;28.27;17.40;;;;;;;3.35;100.00;97049.31;6184003;23;20193;-89
2023/01/24 15:39:21;;;;;;;25.73;17.13;;;;;;;3.29;100.00;97042.03;6185050;23;20181;-89
2023/01/24 15:44:54;;;;;;;28.23;17.03;;;;;;;2.82;100.00;97050.06;6154153;23;20159;-89
2023/01/24 15:48:24;;;;;;;28.10;17.23;;;;;;;2.89;100.00;97054.66;6155361;23;20177;-90
2023/01/24 15:51:09;;;;;;;28.33;17.40;;;;;;;2.87;100.00;97055.69;6154786;23;20189;-89
2023/01/24 15:56:34;;;;;;;28.43;17.33;;;;;;;2.93;100.00;97058.66;6092875;23;20196;-88
2023/01/24 15:59:22;;;;;;;27.60;17.10;;;;;;;2.91;100.00;97057.13;6155944;23;20542;-89
2023/01/24 16:05:07;;;;;;;23.97;16.60;;;;;;;3.00;100.00;97057.41;6155606;23;20175;-89
2023/01/24 16:08:01;;;;;;;25.37;16.20;;;;;;;2.84;100.00;97060.97;6156685;23;20164;-87
2023/01/24 16:10:58;;;;;;;25.10;15.77;;;;;;;2.78;100.00;97057.88;6156322;23;20210;-89
2023/01/24 16:16:48;;;;;;;24.17;16.00;;;;;;;2.74;100.00;97060.69;6155031;23;20198;-88
2023/01/24 16:20:04;;;;;;;22.00;15.33;;;;;;;2.75;100.00;97063.13;6155371;23;20182;-89
2023/01/24 16:22:35;;;;;;;23.77;16.27;;;;;;;2.73;100.00;97064.13;6157236;23;20171;-89
2023/01/24 16:27:54;;;;;;;25.07;15.33;;;;;;;2.90;100.00;97063.94;6153480;23;20171;-89
2023/01/24 16:30:34;;;;;;;22.83;14.87;;;;;;;2.91;100.00;97070.66;6156185;23;20210;-89
2023/01/24 16:33:04;;;;;;;24.40;16.20;;;;;;;2.99;100.00;97067.66;6157173;23;20212;-89
2023/01/24 16:35:32;;;;;;;21.87;15.33;;;;;;;2.94;100.00;97067.13;6156408;23;20198;-87
2023/01/24 16:38:21;;;;;;;21.80;15.60;;;;;;;2.91;100.00;97073.19;6157310;23;20179;-88
2023/01/24 16:40:53;;;;;;;22.93;15.37;;;;;;;2.84;100.00;97071.97;6157515;23;20187;-90
2023/01/24 16:43:32;;;;;;;23.33;15.00;;;;;;;2.84;100.00;97077.03;6156819;23;20230;-87
2023/01/24 16:49:06;;;;;;;21.97;15.50;;;;;;;2.98;100.00;97076.19;6153100;23;20206;-88
2023/01/24 16:51:42;;;;;;;22.07;15.00;;;;;;;2.84;100.00;97083.84;6157527;23;20234;-88
2023/01/24 16:54:17;;;;;;;22.90;14.50;;;;;;;2.87;100.00;97088.78;6158306;23;20170;-88
2023/01/24 16:57:19;;;;;;;24.13;14.97;;;;;;;2.86;100.00;97093.03;6157157;23;20186;-88
2023/01/24 16:59:48;;;;;;;23.00;15.17;;;;;;;2.84;100.00;97092.31;6157208;23;20799;-87
2023/01/24 17:02:17;;;;;;;26.60;16.67;;;;;;;2.87;100.00;97092.13;6156094;23;20250;-88
2023/01/24 17:07:36;;;;;;;22.73;15.13;;;;;;;3.03;100.00;97086.94;6156531;23;20654;-88
2023/01/24 17:10:03;;;;;;;23.23;15.50;;;;;;;3.05;100.00;97088.47;6156181;23;20242;-89
2023/01/24 17:13:17;;;;;;;24.87;15.83;;;;;;;2.97;100.00;97085.56;6157541;23;20175;-88
2023/01/24 17:16:24;;;;;;;21.60;15.07;;;;;;;3.05;100.00;97085.94;6144531;23;20195;-88
2023/01/24 17:19:09;;;;;;;24.70;15.27;;;;;;;3.09;100.00;97089.09;6128227;23;20428;-88
2023/01/24 17:21:58;;;;;;;20.90;14.77;;;;;;;3.09;100.00;97084.81;6127378;23;20207;-88
2023/01/24 17:24:48;;;;;;;22.20;14.80;;;;;;;2.94;100.00;97088.28;6127987;23;20174;-88
2023/01/24 17:27:38;;;;;;;24.23;16.50;;;;;;;2.99;100.00;97082.94;6128535;23;20182;-87
2023/01/24 17:30:24;;;;;;;21.07;15.63;;;;;;;3.04;100.00;97094.47;6127907;23;20183;-88
2023/01/24 17:33:16;;;;;;;23.23;15.13;;;;;;;2.95;100.00;97092.47;6128010;23;20178;-87
2023/01/24 17:35:49;;;;;;;20.57;14.53;;;;;;;2.94;100.00;97093.38;6128121;23;20199;-88
2023/01/24 17:38:47;;;;;;;20.57;14.87;;;;;;;3.01;100.00;97093.84;6128406;23;20194;-87
2023/01/24 17:41:14;;;;;;;20.13;14.43;;;;;;;3.15;100.00;97093.00;6010124;23;20182;-86
2023/01/24 17:43:49;;;;;;;19.23;13.50;;;;;;;3.10;100.00;97101.72;6010978;23;20182;-87
2023/01/24 17:46:18;;;;;;;21.83;14.67;;;;;;;2.99;100.00;97095.66;6114237;23;20194;-86
2023/01/24 17:49:26;;;;;;;19.43;13.40;;;;;;;2.93;100.00;97103.66;6125251;23;20230;-86
2023/01/24 17:52:31;;;;;;;21.47;14.00;;;;;;;2.98;100.00;97106.72;6088417;23;20183;-88
2023/01/24 17:54:59;;;;;;;21.97;14.50;;;;;;;2.96;100.00;97100.91;6130489;23;20186;-87
2023/01/24 18:01:18;;;;;;;;;;;;;;;;;;;;;
2023/01/24 18:04:15;;;;;;;22.33;15.13;;;;;;;2.94;100.00;97105.28;6130042;23;20172;-88
2023/01/24 18:06:55;;;;;;;63.27;31.23;;;;;;;2.91;100.00;97100.38;6128694;23;20275;-87
2023/01/24 18:09:42;;;;;;;103.30;44.83;;;;;;;2.84;100.00;97099.94;6134864;23;20887;-89
2023/01/24 18:12:26;;;;;;;27.50;17.03;;;;;;;2.82;100.00;97101.75;6133191;23;20230;-89
2023/01/24 18:18:19;;;;;;;26.70;18.73;;;;;;;2.83;100.00;97089.84;6130621;23;20343;-87
2023/01/24 18:21:31;;;;;;;24.40;16.13;;;;;;;2.76;100.00;97095.28;5957458;24;20232;-88
2023/01/24 18:24:31;;;;;;;24.13;16.33;;;;;;;2.88;100.00;97091.22;5958335;24;20180;-87
2023/01/24 18:43:13;;;;;;;23.37;16.50;;;;;;;2.83;100.00;97092.41;6064378;23;20784;-88
2023/01/24 18:46:17;;;;;;;21.57;14.60;;;;;;;2.91;100.00;97090.19;6109607;23;20570;-88
2023/01/24 18:49:10;;;;;;;19.53;13.53;;;;;;;2.93;100.00;97090.91;6130230;23;20206;-88
2023/01/24 18:55:02;;;;;;;22.20;14.53;;;;;;;2.82;100.00;97083.13;6141362;23;20182;-87
2023/01/24 18:57:39;;;;;;;18.87;13.67;;;;;;;2.90;100.00;97083.47;6135095;23;20192;-88
2023/01/24 19:00:30;;;;;;;19.57;13.90;;;;;;;3.01;100.00;97076.03;6128935;23;20163;-86
2023/01/24 19:03:11;;;;;;;20.63;13.70;;;;;;;3.04;100.00;97079.22;6124381;23;20515;-87
2023/01/24 19:06:05;;;;;;;18.90;13.73;;;;;;;2.95;100.00;97078.94;6124389;23;20191;-87
2023/01/24 19:09:04;;;;;;;20.53;14.20;;;;;;;2.97;100.00;97077.94;6124594;23;20267;-87
2023/01/24 19:11:52;;;;;;;24.50;16.20;;;;;;;2.92;100.00;97076.56;6103788;23;20211;-88
2023/01/24 19:14:38;;;;;;;20.73;13.47;;;;;;;2.89;100.00;97082.66;6127526;23;20191;-86
2023/01/24 19:17:44;;;;;;;19.30;13.37;;;;;;;2.77;100.00;97081.69;6125983;23;20207;-87
2023/01/24 19:23:25;;;;;;;19.53;13.53;;;;;;;2.84;100.00;97087.22;6172111;23;20255;-87
2023/01/24 19:29:26;;;;;;;18.93;13.37;;;;;;;2.85;100.00;97091.41;6136820;23;20237;-87
2023/01/24 19:32:22;;;;;;;18.47;12.60;;;;;;;2.81;100.00;97089.13;6185458;23;20166;-86
2023/01/24 19:35:03;;;;;;;19.77;14.20;;;;;;;2.67;100.00;97093.31;6185873;23;20633;-86
2023/01/24 19:38:01;;;;;;;20.70;13.87;;;;;;;2.74;100.00;97086.94;6185777;23;20158;-86
2023/01/24 19:44:46;;;;;;;19.57;13.70;;;;;;;2.71;100.00;97093.94;6135106;23;20174;-86
2023/01/24 19:50:23;;;;;;;18.87;13.87;;;;;;;2.57;100.00;97094.75;6185527;23;20192;-87
2023/01/24 19:53:22;;;;;;;20.80;14.17;;;;;;;2.67;100.00;97093.31;6186740;23;20177;-87